Terminal Aerodrome Forecast
Issued by NWS

Home | Current Version | Previous Version | Text Only | Print | Product List | Glossary On
Versions: 1 2 3 4 5 6 7 8 9 10 11 12 13 14 15 16 17 18 19 20 21 22 23 24 25 26 27 28 29 30
751
FTUS45 KGJT 192325
TAFCNY
TAF
KCNY 192325Z 2000/2024 22017G24KT P6SM SCT120
     FM200300 21012G19KT P6SM SCT250
     FM201600 23017G22KT P6SM SCT250
     FM202000 24020G28KT P6SM FEW100 FEW250=

USA.gov is the U.S. government's official web portal to all federal, state and local government web resources and services.